createdAt,value
2016-08-04T00:00:30.470Z,99.99
2016-08-04T00:01:30.447Z,99.99
2016-08-04T00:02:30.457Z,99.99
2016-08-04T00:03:30.450Z,99.99
2016-08-04T00:04:30.448Z,99.99
2016-08-04T00:05:30.437Z,99.99
2016-08-04T00:06:30.452Z,99.99
2016-08-04T00:07:30.428Z,99.99
2016-08-04T00:08:30.449Z,99.99
2016-08-04T00:09:30.423Z,99.99
2016-08-04T00:10:30.426Z,99.99
2016-08-04T00:11:30.424Z,99.99
2016-08-04T00:12:30.425Z,99.99
2016-08-04T00:13:30.426Z,99.99
2016-08-04T00:14:30.412Z,99.99
2016-08-04T00:15:30.402Z,99.99
2016-08-04T00:16:30.392Z,99.99
2016-08-04T00:17:30.436Z,99.99
2016-08-04T00:18:30.393Z,99.99
2016-08-04T00:20:30.387Z,99.99
2016-08-04T00:21:30.390Z,99.99
2016-08-04T00:22:30.451Z,99.99
2016-08-04T00:23:30.382Z,99.99
2016-08-04T00:24:30.368Z,99.99
2016-08-04T00:25:30.392Z,99.99
2016-08-04T00:26:30.389Z,99.99
2016-08-04T00:27:30.375Z,99.99
2016-08-04T00:28:30.351Z,99.99
2016-08-04T00:29:30.386Z,99.99
2016-08-04T00:30:30.352Z,99.99
2016-08-04T00:31:31.120Z,99.99
2016-08-04T00:32:30.396Z,99.99
2016-08-04T00:33:30.369Z,99.99
2016-08-04T00:35:30.334Z,99.99
2016-08-04T00:36:30.345Z,99.99
2016-08-04T00:37:30.392Z,99.99
2016-08-04T00:38:30.323Z,99.99
2016-08-04T00:39:30.317Z,99.99
2016-08-04T00:40:30.327Z,99.99
2016-08-04T00:41:30.423Z,99.99
2016-08-04T00:42:30.322Z,99.99
2016-08-04T00:43:30.378Z,99.99
2016-08-04T00:44:30.306Z,99.99
2016-08-04T00:45:30.298Z,99.99
2016-08-04T00:46:30.309Z,99.99
2016-08-04T00:47:30.320Z,99.99
2016-08-04T00:48:30.297Z,99.99
2016-08-04T00:50:30.295Z,99.99
2016-08-04T00:51:30.294Z,99.99
2016-08-04T00:52:30.282Z,99.99
2016-08-04T00:53:30.275Z,99.99
2016-08-04T00:54:30.285Z,99.99
2016-08-04T00:55:30.271Z,99.99
2016-08-04T00:56:30.255Z,99.99
2016-08-04T00:57:30.265Z,99.99
2016-08-04T00:58:30.269Z,99.99
2016-08-04T00:59:30.255Z,99.99
2016-08-04T01:00:30.258Z,99.99
2016-08-04T01:01:30.263Z,99.99
2016-08-04T01:02:30.274Z,99.99
2016-08-04T01:03:30.244Z,99.99
2016-08-04T01:04:30.234Z,99.99
2016-08-04T01:05:30.668Z,99.99
2016-08-04T01:06:30.232Z,99.99
2016-08-04T01:07:30.261Z,99.99
2016-08-04T01:08:30.242Z,99.99
2016-08-04T01:09:30.226Z,99.99
2016-08-04T01:10:30.240Z,99.99
2016-08-04T01:11:30.230Z,99.99
2016-08-04T01:12:30.214Z,99.99
2016-08-04T01:13:30.211Z,99.99
2016-08-04T01:14:30.205Z,99.99
2016-08-04T01:15:30.230Z,99.99
2016-08-04T01:16:30.192Z,99.99
2016-08-04T01:17:30.200Z,99.99
2016-08-04T01:18:30.962Z,99.99
2016-08-04T01:19:30.212Z,99.99
2016-08-04T01:20:30.192Z,99.99
2016-08-04T01:21:30.182Z,99.99
2016-08-04T01:22:30.194Z,99.99
2016-08-04T01:23:30.234Z,99.99
2016-08-04T01:24:30.170Z,99.99
2016-08-04T01:25:30.180Z,99.99
2016-08-04T01:26:30.165Z,99.99
2016-08-04T01:27:30.164Z,99.99
2016-08-04T01:28:30.173Z,99.99
2016-08-04T01:29:30.163Z,99.99
2016-08-04T01:30:30.166Z,99.99
2016-08-04T01:31:30.154Z,99.99
2016-08-04T01:32:30.164Z,99.99
2016-08-04T01:33:30.168Z,99.99
2016-08-04T01:34:30.142Z,99.99
2016-08-04T01:35:30.137Z,99.99
2016-08-04T01:36:30.138Z,99.99
2016-08-04T01:37:30.147Z,99.99
2016-08-04T01:38:30.145Z,99.99
2016-08-04T01:39:30.137Z,99.99
2016-08-04T01:40:30.134Z,99.99
2016-08-04T01:41:30.182Z,99.99
2016-08-04T01:42:30.134Z,99.99
2016-08-04T01:43:30.132Z,99.99
2016-08-04T01:44:30.123Z,99.99
2016-08-04T01:45:30.106Z,99.99
2016-08-04T01:46:30.113Z,99.99
2016-08-04T01:47:30.106Z,99.99
2016-08-04T01:48:30.112Z,99.99
2016-08-04T01:49:30.101Z,99.99
2016-08-04T01:50:30.127Z,99.99
2016-08-04T01:51:30.094Z,99.99
2016-08-04T01:52:30.100Z,99.99
2016-08-04T01:53:30.105Z,99.99
2016-08-04T01:54:30.107Z,99.99
2016-08-04T01:55:30.099Z,99.99
2016-08-04T01:56:30.836Z,99.99
2016-08-04T01:57:30.082Z,99.99
2016-08-04T01:58:30.109Z,99.99
2016-08-04T01:59:30.086Z,99.99
2016-08-04T02:00:30.080Z,99.99
2016-08-04T02:01:30.065Z,99.99
2016-08-04T02:02:30.059Z,99.99
2016-08-04T02:03:30.081Z,99.99
2016-08-04T02:04:30.051Z,99.99
2016-08-04T02:05:30.055Z,99.99
2016-08-04T02:06:30.058Z,99.99
2016-08-04T02:07:30.049Z,99.99
2016-08-04T02:08:30.047Z,99.99
2016-08-04T02:09:30.060Z,99.99
2016-08-04T02:10:30.045Z,99.99
2016-08-04T02:11:30.046Z,99.99
2016-08-04T02:12:30.048Z,99.99
2016-08-04T02:13:30.029Z,99.99
2016-08-04T02:14:30.033Z,99.99
2016-08-04T02:15:30.026Z,99.99
2016-08-04T02:16:30.038Z,99.99
2016-08-04T02:17:30.016Z,99.99
2016-08-04T02:18:30.015Z,99.99
2016-08-04T02:19:30.009Z,99.99
2016-08-04T02:20:30.017Z,99.99
2016-08-04T02:21:30.007Z,99.99
2016-08-04T02:22:30.023Z,99.99
2016-08-04T02:23:30.016Z,99.99
2016-08-04T02:24:29.999Z,99.99
2016-08-04T02:25:29.988Z,99.99
2016-08-04T02:26:30.025Z,99.99
2016-08-04T02:27:30.001Z,99.99
2016-08-04T02:28:29.981Z,99.99
2016-08-04T02:29:29.994Z,99.99
2016-08-04T02:30:29.983Z,99.99
2016-08-04T02:31:30.000Z,99.99
2016-08-04T02:32:30.005Z,99.99
2016-08-04T02:33:29.962Z,99.99
2016-08-04T02:34:29.969Z,99.99
2016-08-04T02:35:29.964Z,99.99
2016-08-04T02:36:29.961Z,99.99
2016-08-04T02:37:30.042Z,99.99
2016-08-04T02:38:29.959Z,99.99
2016-08-04T02:39:29.963Z,99.99
2016-08-04T02:40:29.957Z,99.99
2016-08-04T02:41:29.957Z,99.99
2016-08-04T02:42:29.939Z,99.99
2016-08-04T02:43:29.989Z,99.99
2016-08-04T02:44:29.936Z,99.99
2016-08-04T02:45:29.933Z,99.99
2016-08-04T02:46:29.937Z,99.99
2016-08-04T02:47:29.960Z,99.99
2016-08-04T02:48:29.927Z,99.99
2016-08-04T02:49:29.939Z,99.99
2016-08-04T02:50:29.915Z,99.99
2016-08-04T02:51:29.937Z,99.99
2016-08-04T02:52:29.942Z,99.99
2016-08-04T02:53:29.912Z,99.99
2016-08-04T02:54:29.949Z,99.99
2016-08-04T02:55:30.657Z,99.99
2016-08-04T02:56:29.931Z,99.99
2016-08-04T02:57:29.905Z,99.99
2016-08-04T02:58:29.897Z,99.99
2016-08-04T02:59:29.886Z,99.99
2016-08-04T03:00:29.910Z,99.99
2016-08-04T03:01:29.882Z,99.99
2016-08-04T03:02:29.886Z,99.99
2016-08-04T03:03:29.874Z,99.99
2016-08-04T03:04:29.874Z,99.99
2016-08-04T03:06:29.898Z,99.99
2016-08-04T03:07:29.863Z,99.99
2016-08-04T03:08:29.879Z,99.99
2016-08-04T03:09:29.851Z,99.99
2016-08-04T03:10:29.859Z,99.99
2016-08-04T03:11:29.856Z,99.99
2016-08-04T03:12:29.860Z,99.99
2016-08-04T03:13:29.872Z,99.99
2016-08-04T03:14:29.872Z,99.99
2016-08-04T03:15:29.840Z,99.99
2016-08-04T03:16:29.839Z,99.99
2016-08-04T03:17:29.844Z,99.99
2016-08-04T03:18:29.846Z,99.99
2016-08-04T03:19:29.840Z,99.99
2016-08-04T03:20:29.885Z,99.99
2016-08-04T03:21:29.817Z,99.99
2016-08-04T03:22:29.820Z,99.99
2016-08-04T03:23:29.827Z,99.99
2016-08-04T03:24:29.819Z,99.99
2016-08-04T03:25:29.810Z,99.99
2016-08-04T03:26:29.809Z,99.99
2016-08-04T03:27:29.816Z,99.99
2016-08-04T03:28:29.811Z,99.99
2016-08-04T03:29:30.063Z,99.99
2016-08-04T03:30:29.797Z,99.99
2016-08-04T03:31:29.791Z,99.99
2016-08-04T03:32:29.802Z,99.99
2016-08-04T03:33:29.792Z,99.99
2016-08-04T03:34:29.903Z,99.99
2016-08-04T03:36:29.795Z,99.99
2016-08-04T03:37:29.784Z,99.99
2016-08-04T03:38:29.774Z,99.99
2016-08-04T03:39:29.765Z,99.99
2016-08-04T03:40:29.755Z,99.99
2016-08-04T03:41:29.767Z,99.99
2016-08-04T03:42:29.772Z,99.99
2016-08-04T03:43:29.761Z,99.99
2016-08-04T03:44:29.764Z,99.99
2016-08-04T03:45:29.749Z,99.99
2016-08-04T03:46:29.751Z,99.99
2016-08-04T03:47:29.748Z,99.99
2016-08-04T03:48:29.746Z,99.99
2016-08-04T03:49:29.752Z,99.99
2016-08-04T03:51:29.733Z,99.99
2016-08-04T03:52:29.731Z,99.99
2016-08-04T03:53:29.735Z,99.99
2016-08-04T03:54:29.774Z,99.99
2016-08-04T03:55:29.815Z,99.99
2016-08-04T03:56:29.722Z,99.99
2016-08-04T03:57:29.714Z,99.99
2016-08-04T03:58:29.717Z,99.99
2016-08-04T03:59:29.707Z,99.99
2016-08-04T04:00:29.718Z,99.99
2016-08-04T04:01:29.716Z,99.99
2016-08-04T04:02:29.724Z,99.99
2016-08-04T04:03:29.691Z,99.99
2016-08-04T04:04:29.724Z,99.99
2016-08-04T04:05:29.698Z,99.99
2016-08-04T04:06:29.684Z,99.99
2016-08-04T04:07:29.695Z,99.99
2016-08-04T04:08:29.675Z,99.99
2016-08-04T04:09:29.681Z,99.99
2016-08-04T04:10:29.674Z,99.99
2016-08-04T04:11:29.678Z,99.99
2016-08-04T04:12:29.673Z,99.99
2016-08-04T04:13:29.703Z,99.99
2016-08-04T04:14:29.659Z,99.99
2016-08-04T04:15:29.658Z,99.99
2016-08-04T04:16:29.668Z,99.99
2016-08-04T04:17:29.666Z,99.99
2016-08-04T04:18:29.658Z,99.99
2016-08-04T04:19:29.653Z,99.99
2016-08-04T04:21:29.647Z,99.99
2016-08-04T04:22:29.651Z,99.99
2016-08-04T04:23:29.700Z,99.99
2016-08-04T04:24:29.690Z,99.99
2016-08-04T04:25:29.631Z,99.99
2016-08-04T04:26:29.637Z,99.99
2016-08-04T04:27:29.630Z,99.99
2016-08-04T04:28:29.699Z,99.99
2016-08-04T04:29:29.626Z,99.99
2016-08-04T04:30:29.641Z,99.99
2016-08-04T04:31:29.624Z,99.99
2016-08-04T04:32:29.632Z,99.99
2016-08-04T04:33:29.635Z,99.99
2016-08-04T04:34:29.642Z,99.99
2016-08-04T04:35:29.614Z,99.99
2016-08-04T04:36:29.613Z,99.99
2016-08-04T04:37:29.609Z,99.99
2016-08-04T04:38:29.615Z,99.99
2016-08-04T04:39:29.622Z,99.99
2016-08-04T04:40:29.595Z,99.99
2016-08-04T04:41:29.596Z,99.99
2016-08-04T04:42:29.599Z,99.99
2016-08-04T04:43:29.603Z,99.99
2016-08-04T04:44:29.603Z,99.99
2016-08-04T04:45:29.593Z,99.99
2016-08-04T04:46:29.619Z,99.99
2016-08-04T04:47:29.604Z,99.87
2016-08-04T04:48:29.610Z,99.77
2016-08-04T04:49:29.586Z,99.99
2016-08-04T04:50:29.610Z,99.99
2016-08-04T04:51:29.582Z,99.99
2016-08-04T04:52:29.581Z,99.99
2016-08-04T04:53:29.593Z,99.99
2016-08-04T04:54:29.570Z,99.99
2016-08-04T04:55:29.582Z,99.99
2016-08-04T04:56:29.575Z,99.96
2016-08-04T04:57:29.566Z,99.39
2016-08-04T04:58:29.568Z,99.99
2016-08-04T04:59:29.592Z,99.49
2016-08-04T05:00:29.562Z,99.96
2016-08-04T05:01:29.572Z,99.99
2016-08-04T05:02:29.556Z,99.99
2016-08-04T05:03:29.575Z,99.58
2016-08-04T05:04:29.555Z,99.82
2016-08-04T05:05:29.562Z,99.63
2016-08-04T05:06:29.568Z,99.82
2016-08-04T05:07:29.556Z,99.34
2016-08-04T05:08:29.589Z,99.15
2016-08-04T05:09:29.555Z,98.77
2016-08-04T05:10:29.546Z,98.96
2016-08-04T05:11:29.556Z,99.44
2016-08-04T05:12:29.595Z,98.67
2016-08-04T05:13:29.537Z,98.58
2016-08-04T05:14:29.568Z,98.19
2016-08-04T05:15:29.533Z,98.67
2016-08-04T05:16:29.536Z,99.82
2016-08-04T05:17:29.561Z,99.44
2016-08-04T05:18:29.529Z,99.44
2016-08-04T05:19:29.549Z,99.15
2016-08-04T05:20:29.540Z,98.96
2016-08-04T05:21:29.611Z,98.77
2016-08-04T05:22:29.560Z,99.25
2016-08-04T05:23:29.538Z,99.63
2016-08-04T05:24:29.516Z,99.82
2016-08-04T05:25:29.529Z,99.73
2016-08-04T05:26:29.542Z,98.96
2016-08-04T05:27:29.512Z,99.44
2016-08-04T05:28:29.521Z,98.19
2016-08-04T05:29:29.530Z,97.81
2016-08-04T05:30:29.531Z,97.81
2016-08-04T05:31:29.514Z,98.19
2016-08-04T05:32:29.605Z,96.75
2016-08-04T05:33:29.529Z,97.33
2016-08-04T05:34:29.506Z,97.61
2016-08-04T05:35:29.513Z,97.61
2016-08-04T05:36:29.501Z,97.52
2016-08-04T05:37:29.506Z,98.19
2016-08-04T05:38:29.510Z,98.58
2016-08-04T05:39:29.501Z,98.19
2016-08-04T05:40:29.498Z,98.48
2016-08-04T05:41:30.246Z,98.38
2016-08-04T05:42:29.488Z,98.19
2016-08-04T05:43:29.497Z,98.77
2016-08-04T05:44:29.495Z,98.77
2016-08-04T05:45:29.491Z,98.86
2016-08-04T05:46:29.488Z,98.38
2016-08-04T05:47:29.498Z,98.63
2016-08-04T05:48:29.489Z,98.58
2016-08-04T05:49:29.483Z,98.19
2016-08-04T05:50:29.527Z,98.24
2016-08-04T05:51:29.485Z,98.63
2016-08-04T05:52:29.485Z,99.01
2016-08-04T05:53:29.510Z,98.24
2016-08-04T05:54:29.474Z,97.96
2016-08-04T05:55:29.475Z,96.8
2016-08-04T05:56:29.505Z,97.09
2016-08-04T05:57:29.477Z,97.76
2016-08-04T05:58:29.478Z,97.19
2016-08-04T05:59:29.471Z,95.55
2016-08-04T06:00:29.480Z,95.6
2016-08-04T06:01:29.464Z,96.17
2016-08-04T06:02:29.502Z,95.7
2016-08-04T06:03:29.479Z,95.4
2016-08-04T06:04:29.479Z,95.03
2016-08-04T06:05:30.198Z,92.72
2016-08-04T06:06:29.482Z,92.81
2016-08-04T06:07:29.475Z,94.16
2016-08-04T06:08:29.459Z,94.45
2016-08-04T06:09:29.472Z,95.12
2016-08-04T06:10:29.466Z,95.12
2016-08-04T06:11:29.470Z,95.07
2016-08-04T06:12:29.477Z,92.76
2016-08-04T06:13:29.459Z,92.19
2016-08-04T06:14:29.515Z,92.52
2016-08-04T06:15:29.565Z,92.76
2016-08-04T06:16:29.527Z,93.15
2016-08-04T06:17:29.487Z,93.24
2016-08-04T06:18:29.693Z,93.24
2016-08-04T06:19:29.543Z,91.9
2016-08-04T06:20:29.490Z,92.76
2016-08-04T06:21:29.581Z,93.44
2016-08-04T06:22:29.614Z,93
2016-08-04T06:23:29.578Z,92.91
2016-08-04T06:24:29.502Z,92.52
2016-08-04T06:25:30.456Z,89.97
2016-08-04T06:26:29.545Z,89.68
2016-08-04T06:27:29.699Z,90.45
2016-08-04T06:28:30.239Z,90.26
2016-08-04T06:29:29.450Z,91.03
2016-08-04T06:30:29.508Z,89.68
2016-08-04T06:31:29.514Z,88.91
2016-08-04T06:32:29.482Z,89.39
2016-08-04T06:33:29.461Z,89.92
2016-08-04T06:34:29.458Z,88.28
2016-08-04T06:35:29.551Z,88.28
2016-08-04T06:36:29.465Z,86.45
2016-08-04T06:37:29.502Z,87.41
2016-08-04T06:38:29.463Z,87.7
2016-08-04T06:39:29.503Z,87.51
2016-08-04T06:40:29.464Z,88.76
2016-08-04T06:41:29.449Z,86.65
2016-08-04T06:42:30.553Z,86.45
2016-08-04T06:43:29.495Z,87.41
2016-08-04T06:44:29.512Z,87.03
2016-08-04T06:45:29.459Z,86.16
2016-08-04T06:46:29.641Z,85.49
2016-08-04T06:47:29.487Z,86.83
2016-08-04T06:48:29.453Z,86.83
2016-08-04T06:49:29.544Z,85.1
2016-08-04T06:50:29.482Z,85.1
2016-08-04T06:51:29.510Z,85.68
2016-08-04T06:52:29.474Z,86.74
2016-08-04T06:53:29.475Z,85
2016-08-04T06:54:29.469Z,85.49
2016-08-04T06:55:29.512Z,85.78
2016-08-04T06:56:30.314Z,85.49
2016-08-04T06:57:29.479Z,85.24
2016-08-04T06:58:29.468Z,83.18
2016-08-04T06:59:30.250Z,84.53
2016-08-04T07:00:29.727Z,85.2
2016-08-04T07:01:29.468Z,85.3
2016-08-04T07:02:29.557Z,86.45
2016-08-04T07:03:29.470Z,85.58
2016-08-04T07:04:29.479Z,85.68
2016-08-04T07:05:29.478Z,86.26
2016-08-04T07:06:29.651Z,86.55
2016-08-04T07:07:29.480Z,86.74
2016-08-04T07:08:29.479Z,87.22
2016-08-04T07:09:29.484Z,85.63
2016-08-04T07:10:29.479Z,86.3
2016-08-04T07:11:29.543Z,86.88
2016-08-04T07:12:29.517Z,84.38
2016-08-04T07:13:29.504Z,85.34
2016-08-04T07:14:29.477Z,86.49
2016-08-04T07:15:29.466Z,85.05
2016-08-04T07:16:29.485Z,85.05
2016-08-04T07:17:29.486Z,85.57
2016-08-04T07:18:29.479Z,85.86
2016-08-04T07:19:29.474Z,85.09
2016-08-04T07:20:29.478Z,83.84
2016-08-04T07:21:29.508Z,83.2
2016-08-04T07:22:29.493Z,83.98
2016-08-04T07:23:29.491Z,83.11
2016-08-04T07:24:29.492Z,83.4
2016-08-04T07:25:29.498Z,82.72
2016-08-04T07:26:29.532Z,81.09
2016-08-04T07:27:29.489Z,81.18
2016-08-04T07:28:29.540Z,80.6
2016-08-04T07:29:29.486Z,80.51
2016-08-04T07:30:29.494Z,81.6
2016-08-04T07:31:29.488Z,79.97
2016-08-04T07:32:29.500Z,79.43
2016-08-04T07:33:29.496Z,78.59
2016-08-04T07:34:29.501Z,79.31
2016-08-04T07:35:29.484Z,77.09
2016-08-04T07:36:29.778Z,73.65
2016-08-04T07:37:29.486Z,73.1
2016-08-04T07:38:29.505Z,70.62
2016-08-04T07:39:29.503Z,69.56
2016-08-04T07:40:29.535Z,70.86
2016-08-04T07:41:29.500Z,68.53
2016-08-04T07:42:29.568Z,68.66
2016-08-04T07:43:29.524Z,65.47
2016-08-04T07:44:29.526Z,68.12
2016-08-04T07:45:29.508Z,65.4
2016-08-04T07:46:29.529Z,64.75
2016-08-04T07:47:29.533Z,63.53
2016-08-04T07:48:29.522Z,59.87
2016-08-04T07:49:29.523Z,61.61
2016-08-04T07:50:29.526Z,59.12
2016-08-04T07:51:29.557Z,56.98
2016-08-04T07:52:29.532Z,58.57
2016-08-04T07:53:29.544Z,57.33
2016-08-04T07:54:29.540Z,56.29
2016-08-04T07:55:29.562Z,58.33
2016-08-04T07:56:29.545Z,57.71
2016-08-04T07:57:29.555Z,54.23
2016-08-04T07:58:29.552Z,51.46
2016-08-04T07:59:29.562Z,52.66
2016-08-04T08:00:30.523Z,48.58
2016-08-04T08:01:29.571Z,46.58
2016-08-04T08:02:29.576Z,49.14
2016-08-04T08:03:29.580Z,45.16
2016-08-04T08:04:29.585Z,47.41
2016-08-04T08:05:29.635Z,42.71
2016-08-04T08:06:29.626Z,42.91
2016-08-04T08:07:29.620Z,44.96
2016-08-04T08:08:29.612Z,43.59
2016-08-04T08:09:29.608Z,42.91
2016-08-04T08:10:29.613Z,45.23
2016-08-04T08:11:29.627Z,45.14
2016-08-04T08:12:29.611Z,42.87
2016-08-04T08:13:29.628Z,46.07
2016-08-04T08:14:29.658Z,45.46
2016-08-04T08:15:29.664Z,45.54
2016-08-04T08:16:29.667Z,47.95
2016-08-04T08:17:29.650Z,50.16
2016-08-04T08:18:29.644Z,51.99
2016-08-04T08:19:29.653Z,51.77
2016-08-04T08:20:29.659Z,51.92
2016-08-04T08:22:29.660Z,54.13
2016-08-04T08:23:29.675Z,59.05
2016-08-04T08:24:29.671Z,57.76
2016-08-04T08:25:29.690Z,58.05
2016-08-04T08:26:29.713Z,60.45
2016-08-04T08:27:29.696Z,60.06
2016-08-04T08:28:29.763Z,59.67
2016-08-04T08:29:29.706Z,59.84
2016-08-04T08:30:29.699Z,59.36
2016-08-04T08:31:29.712Z,58.74
2016-08-04T08:32:29.718Z,58.65
2016-08-04T08:33:29.719Z,59.23
2016-08-04T08:34:29.721Z,58.81
2016-08-04T08:35:29.727Z,59.49
2016-08-04T08:37:30.443Z,60.46
2016-08-04T08:38:29.739Z,61.91
2016-08-04T08:39:29.742Z,63.07
2016-08-04T08:40:29.794Z,61.04
2016-08-04T08:41:29.773Z,60.49
2016-08-04T08:42:29.800Z,59.61
2016-08-04T08:43:29.767Z,60.2
2016-08-04T08:44:29.767Z,62.33
2016-08-04T08:45:29.773Z,60.97
2016-08-04T08:46:29.774Z,58.94
2016-08-04T08:47:29.777Z,60.58
2016-08-04T08:48:29.782Z,62.43
2016-08-04T08:49:29.878Z,62.82
2016-08-04T08:50:29.791Z,62.16
2016-08-04T08:51:29.823Z,59.84
2016-08-04T08:52:29.797Z,61.85
2016-08-04T08:53:29.810Z,60.3
2016-08-04T08:54:30.019Z,59.61
2016-08-04T08:55:29.818Z,57.36
2016-08-04T08:56:29.828Z,59.59
2016-08-04T08:57:29.823Z,60.52
2016-08-04T08:58:29.826Z,60.33
2016-08-04T08:59:29.833Z,58.69
2016-08-04T09:00:29.843Z,58.69
2016-08-04T09:01:29.839Z,60.69
2016-08-04T09:02:29.856Z,63.14
2016-08-04T09:03:29.842Z,63.98
2016-08-04T09:04:29.847Z,63.98
2016-08-04T09:05:29.857Z,63.98
2016-08-04T09:07:29.867Z,61.53
2016-08-04T09:08:29.856Z,61.53
2016-08-04T09:09:29.868Z,62.21
2016-08-04T09:10:29.929Z,64.24
2016-08-04T09:11:29.882Z,65.2
2016-08-04T09:12:29.886Z,64.92
2016-08-04T09:13:29.892Z,62.98
2016-08-04T09:14:29.888Z,60.98
2016-08-04T09:15:29.937Z,61.05
2016-08-04T09:16:29.915Z,61.08
2016-08-04T09:17:29.902Z,62.14
2016-08-04T09:18:29.918Z,61.18
2016-08-04T09:19:29.905Z,60.59
2016-08-04T09:20:29.920Z,63.01
2016-08-04T09:21:29.920Z,63.49
2016-08-04T09:22:29.922Z,63.53
2016-08-04T09:23:29.930Z,61.66
2016-08-04T09:24:29.928Z,63.4
2016-08-04T09:25:29.927Z,62.17
2016-08-04T09:26:29.928Z,61.11
2016-08-04T09:27:29.935Z,62.37
2016-08-04T09:28:29.942Z,61.49
2016-08-04T09:29:29.942Z,60.43
2016-08-04T09:30:29.944Z,59.84
2016-08-04T09:31:29.958Z,61.3
2016-08-04T09:32:29.944Z,62.95
2016-08-04T09:33:29.965Z,62.01
2016-08-04T09:34:29.963Z,62.3
2016-08-04T09:35:29.966Z,61.14
2016-08-04T09:36:30.014Z,61.17
2016-08-04T09:37:29.989Z,60.88
2016-08-04T09:38:29.970Z,58.91
2016-08-04T09:39:29.982Z,60.17
2016-08-04T09:40:29.983Z,60.85
2016-08-04T09:41:29.988Z,61.24
2016-08-04T09:42:30.049Z,62.46
2016-08-04T09:43:30.017Z,63.24
2016-08-04T09:44:30.001Z,62.37
2016-08-04T09:45:30.027Z,62.82
2016-08-04T09:46:30.020Z,62.82
2016-08-04T09:47:30.015Z,62.82
2016-08-04T09:48:30.024Z,63.11
2016-08-04T09:49:30.029Z,63.69
2016-08-04T09:50:30.027Z,64.75
2016-08-04T09:51:30.026Z,64.27
2016-08-04T09:52:30.037Z,62.72
2016-08-04T09:53:30.037Z,63.79
2016-08-04T09:54:30.052Z,64.85
2016-08-04T09:55:30.049Z,63.59
2016-08-04T09:56:30.046Z,63.79
2016-08-04T09:57:30.057Z,63.4
2016-08-04T09:58:30.052Z,62.69
2016-08-04T09:59:30.057Z,62.88
2016-08-04T10:00:30.064Z,61.36
2016-08-04T10:01:30.067Z,61.76
2016-08-04T10:02:30.068Z,62.11
2016-08-04T10:03:30.077Z,61.95
2016-08-04T10:04:30.086Z,60.88
2016-08-04T10:05:30.086Z,60.5
2016-08-04T10:06:30.091Z,60.69
2016-08-04T10:07:30.095Z,60.88
2016-08-04T10:08:30.103Z,62.14
2016-08-04T10:09:30.093Z,61.98
2016-08-04T10:10:30.136Z,61.79
2016-08-04T10:11:30.110Z,63.14
2016-08-04T10:12:30.116Z,62.27
2016-08-04T10:13:30.123Z,61.21
2016-08-04T10:14:30.120Z,60.52
2016-08-04T10:15:30.133Z,60.91
2016-08-04T10:16:30.132Z,61.01
2016-08-04T10:17:30.147Z,60.78
2016-08-04T10:18:30.143Z,60.98
2016-08-04T10:19:30.140Z,61.43
2016-08-04T10:20:30.144Z,61.33
2016-08-04T10:21:30.141Z,61.82
2016-08-04T10:22:30.153Z,62.11
2016-08-04T10:23:30.159Z,61.24
2016-08-04T10:24:30.210Z,62.01
2016-08-04T10:25:30.159Z,62.92
2016-08-04T10:26:30.165Z,61.08
2016-08-04T10:27:30.169Z,63.01
2016-08-04T10:28:30.175Z,61.95
2016-08-04T10:29:30.171Z,62.43
2016-08-04T10:30:30.180Z,61.18
2016-08-04T10:31:30.182Z,60.4
2016-08-04T10:32:30.207Z,60.88
2016-08-04T10:33:30.191Z,61.56
2016-08-04T10:34:30.222Z,61.56
2016-08-04T10:35:30.243Z,61.56
2016-08-04T10:36:30.215Z,61.76
2016-08-04T10:37:30.205Z,61.18
2016-08-04T10:38:30.224Z,60.5
2016-08-04T10:39:30.227Z,61.36
2016-08-04T10:40:30.224Z,61.56
2016-08-04T10:41:30.332Z,60.98
2016-08-04T10:42:30.280Z,60.3
2016-08-04T10:43:30.236Z,61.27
2016-08-04T10:44:30.244Z,59.53
2016-08-04T10:45:30.244Z,58.95
2016-08-04T10:46:30.246Z,60.04
2016-08-04T10:47:30.254Z,58.49
2016-08-04T10:48:30.243Z,58.3
2016-08-04T10:49:30.252Z,54.84
2016-08-04T10:50:30.258Z,54.26
2016-08-04T10:51:30.257Z,54.03
2016-08-04T10:52:30.261Z,55.98
2016-08-04T10:53:30.261Z,59.36
2016-08-04T10:54:30.550Z,54.52
2016-08-04T10:55:30.276Z,55.4
2016-08-04T10:56:30.284Z,55.68
2016-08-04T10:57:30.295Z,58.39
2016-08-04T10:58:30.298Z,59.56
2016-08-04T10:59:30.318Z,60.24
2016-08-04T11:00:30.313Z,57.43
2016-08-04T11:01:30.310Z,57.43
2016-08-04T11:02:30.314Z,57.11
2016-08-04T11:03:30.315Z,59.05
2016-08-04T11:04:30.335Z,59.91
2016-08-04T11:05:30.321Z,56.24
2016-08-04T11:06:30.327Z,55.76
2016-08-04T11:07:30.338Z,54.98
2016-08-04T11:08:30.340Z,56.34
2016-08-04T11:09:30.353Z,58.95
2016-08-04T11:10:30.350Z,61.18
2016-08-04T11:11:30.371Z,57.4
2016-08-04T11:12:30.385Z,55.2
2016-08-04T11:13:30.393Z,55.78
2016-08-04T11:14:30.357Z,55.49
2016-08-04T11:15:30.363Z,56.85
2016-08-04T11:16:30.361Z,57.11
2016-08-04T11:17:30.373Z,58.88
2016-08-04T11:18:30.360Z,58.59
2016-08-04T11:19:30.413Z,55.3
2016-08-04T11:20:30.379Z,59.07
2016-08-04T11:21:30.377Z,56.65
2016-08-04T11:22:30.414Z,58.49
2016-08-04T11:23:30.388Z,58.39
2016-08-04T11:24:30.404Z,56.94
2016-08-04T11:25:30.391Z,56.36
2016-08-04T11:26:30.400Z,57.33
2016-08-04T11:27:30.410Z,59.27
2016-08-04T11:28:30.414Z,58.59
2016-08-04T11:29:30.413Z,58.98
2016-08-04T11:30:30.412Z,56.36
2016-08-04T11:31:30.420Z,55.58
2016-08-04T11:32:30.434Z,52.49
2016-08-04T11:33:30.428Z,54.43
2016-08-04T11:34:30.435Z,55.3
2016-08-04T11:35:30.441Z,54.52
2016-08-04T11:36:30.441Z,56.85
2016-08-04T11:38:30.457Z,56.65
2016-08-04T11:39:30.470Z,56.46
2016-08-04T11:40:30.465Z,54.13
2016-08-04T11:41:30.475Z,56.85
2016-08-04T11:42:30.479Z,57.36
2016-08-04T11:43:30.473Z,58.42
2016-08-04T11:44:30.740Z,58.81
2016-08-04T11:45:30.486Z,60.36
2016-08-04T11:46:30.491Z,54.64
2016-08-04T11:47:30.498Z,58.91
2016-08-04T11:48:30.501Z,54.94
2016-08-04T11:49:30.507Z,54.06
2016-08-04T11:50:30.511Z,54.55
2016-08-04T11:51:30.522Z,54.71
2016-08-04T11:52:30.538Z,54.71
2016-08-04T11:53:30.514Z,56.16
2016-08-04T11:54:30.530Z,54.62
2016-08-04T11:55:30.528Z,54.81
2016-08-04T11:56:30.527Z,57.71
2016-08-04T11:57:30.540Z,57.04
2016-08-04T11:58:30.535Z,57.43
2016-08-04T11:59:30.555Z,57.53
2016-08-04T12:00:30.556Z,61.3
2016-08-04T12:01:30.550Z,55.27
2016-08-04T12:02:30.559Z,55.88
2016-08-04T12:03:30.554Z,57.71
2016-08-04T12:04:30.565Z,55.58
2016-08-04T12:05:30.581Z,56.62
2016-08-04T12:06:30.566Z,55.49
2016-08-04T12:08:30.580Z,56.56
2016-08-04T12:09:30.585Z,58.98
2016-08-04T12:10:30.597Z,59.36
2016-08-04T12:11:30.626Z,59.17
2016-08-04T12:12:30.605Z,59.07
2016-08-04T12:13:30.600Z,59.36
2016-08-04T12:14:30.607Z,57.04
2016-08-04T12:15:30.620Z,57.33
2016-08-04T12:16:30.609Z,57.04
2016-08-04T12:17:30.624Z,54.81
2016-08-04T12:18:30.626Z,55.78
2016-08-04T12:19:30.630Z,57.71
2016-08-04T12:20:30.714Z,54.81
2016-08-04T12:21:30.879Z,54.52
2016-08-04T12:23:30.648Z,54.62
2016-08-04T12:24:30.656Z,55.88
2016-08-04T12:25:30.661Z,57.43
2016-08-04T12:26:30.661Z,56.46
2016-08-04T12:27:30.667Z,58.88
2016-08-04T12:28:30.662Z,53.58
2016-08-04T12:29:30.684Z,52.9
2016-08-04T12:30:30.676Z,55.71
2016-08-04T12:31:30.689Z,51.25
2016-08-04T12:32:30.687Z,51.93
2016-08-04T12:33:30.706Z,52.42
2016-08-04T12:34:30.689Z,53.87
2016-08-04T12:35:31.407Z,54.84
2016-08-04T12:36:30.706Z,53.29
2016-08-04T12:38:30.727Z,56.46
2016-08-04T12:39:30.720Z,56.77
2016-08-04T12:40:30.717Z,53.87
2016-08-04T12:41:30.802Z,57.23
2016-08-04T12:42:30.775Z,56.36
2016-08-04T12:43:30.732Z,56.36
2016-08-04T12:44:30.739Z,51.9
2016-08-04T12:45:30.741Z,52.49
2016-08-04T12:46:30.743Z,54.84
2016-08-04T12:47:30.753Z,54.45
2016-08-04T12:48:30.750Z,55.71
2016-08-04T12:49:30.762Z,56.49
2016-08-04T12:50:31.471Z,57.55
2016-08-04T12:51:30.770Z,54.74
2016-08-04T12:53:30.769Z,56.16
2016-08-04T12:54:30.782Z,55.4
2016-08-04T12:55:30.795Z,55.58
2016-08-04T12:56:30.789Z,56.65
2016-08-04T12:57:30.797Z,58.78
2016-08-04T12:58:30.803Z,57.07
2016-08-04T12:59:30.810Z,56.77
2016-08-04T13:00:30.814Z,56.68
2016-08-04T13:01:30.818Z,56.46
2016-08-04T13:02:30.841Z,56.65
2016-08-04T13:03:30.816Z,53.75
2016-08-04T13:04:30.835Z,52.12
2016-08-04T13:05:30.838Z,53.09
2016-08-04T13:06:30.839Z,56.29
2016-08-04T13:08:30.853Z,52.12
2016-08-04T13:09:30.856Z,54.67
2016-08-04T13:10:30.852Z,52.03